createdAt,value
2022-11-27T00:29:25.680Z,0
2022-11-27T00:30:06.173Z,0
2022-11-27T00:30:46.637Z,0
2022-11-27T00:31:27.174Z,0
2022-11-27T00:32:07.559Z,0
2022-11-27T00:32:48.056Z,0
2022-11-27T00:33:28.550Z,0
2022-11-27T00:34:09.047Z,0
2022-11-27T00:34:49.479Z,0
2022-11-27T00:35:29.945Z,0
2022-11-27T00:36:10.458Z,0
2022-11-27T00:43:43.443Z,0
2022-11-27T00:44:16.236Z,0
2022-11-27T00:44:56.721Z,0
2022-11-27T00:45:37.201Z,0
2022-11-27T00:46:58.186Z,0
2022-11-27T00:47:38.609Z,0
2022-11-27T00:48:19.066Z,0
2022-11-27T00:48:59.558Z,0
2022-11-27T00:49:40.045Z,0
2022-11-27T00:50:20.534Z,0
2022-11-27T00:57:45.821Z,0
2022-11-27T00:58:26.354Z,0
2022-11-27T00:59:06.836Z,0
2022-11-27T00:59:47.298Z,0
2022-11-27T01:00:27.815Z,0
2022-11-27T01:01:08.293Z,0
2022-11-27T01:01:48.833Z,0
2022-11-27T01:02:29.295Z,0
2022-11-27T01:03:09.789Z,0
2022-11-27T01:04:30.694Z,0
2022-11-27T01:10:35.598Z,0
2022-11-27T01:11:16.066Z,0
2022-11-27T01:11:56.608Z,0
2022-11-27T01:12:37.032Z,0
2022-11-27T01:13:17.527Z,0
2022-11-27T01:13:57.979Z,0
2022-11-27T01:14:38.806Z,0
2022-11-27T01:15:18.958Z,0
2022-11-27T01:15:59.514Z,0
2022-11-27T01:16:43.044Z,0
2022-11-27T01:17:20.403Z,0
2022-11-27T01:24:45.706Z,0
2022-11-27T01:25:27.139Z,0
2022-11-27T01:26:06.679Z,0
2022-11-27T01:26:47.279Z,0
2022-11-27T01:27:27.672Z,0
2022-11-27T01:28:08.152Z,0
2022-11-27T01:28:48.634Z,0
2022-11-27T01:29:29.177Z,0
2022-11-27T01:30:09.626Z,0
2022-11-27T01:30:50.216Z,0
2022-11-27T01:38:55.843Z,0
2022-11-27T01:39:36.348Z,0
2022-11-27T01:40:16.811Z,0
2022-11-27T01:40:57.309Z,0
2022-11-27T01:41:37.801Z,0
2022-11-27T01:42:18.302Z,0
2022-11-27T01:42:58.739Z,0
2022-11-27T01:43:39.209Z,0
2022-11-27T01:44:19.737Z,0
2022-11-27T01:45:00.187Z,0
2022-11-27T01:45:40.692Z,0
2022-11-27T01:52:25.526Z,0
2022-11-27T01:53:06.012Z,0
2022-11-27T01:53:46.476Z,0
2022-11-27T01:54:26.991Z,0
2022-11-27T01:55:07.467Z,0
2022-11-27T01:55:48.768Z,0
2022-11-27T01:56:29.257Z,0
2022-11-27T01:57:09.734Z,0
2022-11-27T01:57:50.234Z,0
2022-11-27T01:58:30.727Z,0
2022-11-27T02:05:15.527Z,0
2022-11-27T02:05:56.018Z,0
2022-11-27T02:06:36.503Z,0
2022-11-27T02:07:16.978Z,0
2022-11-27T02:07:57.480Z,0
2022-11-27T02:08:37.911Z,0
2022-11-27T02:09:18.396Z,0
2022-11-27T02:09:58.897Z,0
2022-11-27T02:10:39.352Z,0
2022-11-27T02:11:19.833Z,0
2022-11-27T02:12:00.302Z,0
2022-11-27T02:19:25.657Z,0
2022-11-27T02:20:06.132Z,0
2022-11-27T02:20:46.613Z,0
2022-11-27T02:21:27.098Z,0
2022-11-27T02:22:07.589Z,0
2022-11-27T02:22:48.053Z,0
2022-11-27T02:23:28.541Z,0
2022-11-27T02:24:09.047Z,0
2022-11-27T02:24:49.488Z,0
2022-11-27T02:25:30.004Z,0
2022-11-27T02:26:10.481Z,0
2022-11-27T02:29:23.970Z,0
2022-11-27T02:30:04.514Z,0
2022-11-27T02:30:44.937Z,0
2022-11-27T02:31:25.514Z,0
2022-11-27T02:32:05.931Z,0
2022-11-27T02:32:46.426Z,0
2022-11-27T02:33:26.927Z,0
2022-11-27T02:34:07.392Z,0
2022-11-27T02:34:47.896Z,0
2022-11-27T02:35:28.376Z,0
2022-11-27T02:36:08.885Z,0
2022-11-27T02:42:53.693Z,0
2022-11-27T02:43:34.187Z,0
2022-11-27T02:44:14.687Z,0
2022-11-27T02:44:55.153Z,0
2022-11-27T02:45:35.658Z,0
2022-11-27T02:46:16.147Z,0
2022-11-27T02:46:56.665Z,0
2022-11-27T02:47:37.073Z,0
2022-11-27T02:48:58.066Z,0
2022-11-27T02:49:38.536Z,0
2022-11-27T02:50:19.034Z,0
2022-11-27T02:57:03.853Z,0
2022-11-27T02:57:44.482Z,0
2022-11-27T02:58:24.888Z,0
2022-11-27T02:59:05.362Z,0
2022-11-27T02:59:45.854Z,0
2022-11-27T03:00:26.309Z,0
2022-11-27T03:01:06.805Z,0
2022-11-27T03:01:47.483Z,0
2022-11-27T03:02:27.865Z,0
2022-11-27T03:03:08.336Z,0
2022-11-27T03:10:33.788Z,0
2022-11-27T03:11:14.269Z,0
2022-11-27T03:11:54.806Z,0
2022-11-27T03:12:35.258Z,0
2022-11-27T03:13:15.851Z,0
2022-11-27T03:13:56.216Z,0
2022-11-27T03:14:36.736Z,0
2022-11-27T03:15:17.221Z,0
2022-11-27T03:15:57.770Z,0
2022-11-27T03:16:38.202Z,0
2022-11-27T03:17:18.702Z,0
2022-11-27T03:24:44.050Z,0
2022-11-27T03:25:24.546Z,0
2022-11-27T03:26:05.039Z,0
2022-11-27T03:26:45.528Z,0
2022-11-27T03:27:25.997Z,0
2022-11-27T03:31:13.407Z,0
2022-11-27T03:31:53.782Z,0
2022-11-27T03:32:34.242Z,0
2022-11-27T03:33:14.711Z,0
2022-11-27T03:33:55.218Z,0
2022-11-27T03:34:35.687Z,0
2022-11-27T03:35:16.174Z,0
2022-11-27T03:35:56.698Z,0
2022-11-27T03:38:09.904Z,0
2022-11-27T03:38:50.439Z,0
2022-11-27T03:39:30.864Z,0
2022-11-27T03:40:11.347Z,0
2022-11-27T03:40:51.821Z,0
2022-11-27T03:41:32.276Z,0
2022-11-27T03:42:12.766Z,0
2022-11-27T03:42:53.231Z,0
2022-11-27T03:43:33.709Z,0
2022-11-27T03:44:14.289Z,0
2022-11-27T03:44:54.726Z,0
2022-11-27T03:50:36.948Z,0
2022-11-27T03:52:55.139Z,0
2022-11-27T03:53:35.732Z,0
2022-11-27T03:54:16.137Z,0
2022-11-27T03:54:56.633Z,0
2022-11-27T03:55:37.096Z,0
2022-11-27T03:56:17.546Z,0
2022-11-27T03:57:38.543Z,0
2022-11-27T03:58:19.005Z,0
2022-11-27T03:58:59.515Z,0
2022-11-27T04:06:24.888Z,0
2022-11-27T04:07:05.381Z,0
2022-11-27T04:07:45.918Z,0
2022-11-27T04:08:26.386Z,0
2022-11-27T04:09:06.887Z,0
2022-11-27T04:09:47.354Z,0
2022-11-27T04:10:27.872Z,0
2022-11-27T04:11:08.287Z,0
2022-11-27T04:11:48.782Z,0
2022-11-27T04:12:29.249Z,0
2022-11-27T04:13:09.720Z,0
2022-11-27T04:20:35.047Z,0
2022-11-27T04:21:15.540Z,0
2022-11-27T04:21:56.029Z,0
2022-11-27T04:22:36.533Z,0
2022-11-27T04:23:17.062Z,0
2022-11-27T04:23:57.511Z,0
2022-11-27T04:25:18.460Z,0
2022-11-27T04:25:58.969Z,0
2022-11-27T04:26:39.456Z,0
2022-11-27T04:27:19.928Z,0
2022-11-27T04:34:04.847Z,0
2022-11-27T04:34:45.317Z,0
2022-11-27T04:35:25.807Z,0
2022-11-27T04:36:06.281Z,0
2022-11-27T04:36:46.743Z,0
2022-11-27T04:37:27.226Z,0
2022-11-27T04:38:07.735Z,0
2022-11-27T04:38:48.202Z,0
2022-11-27T04:39:28.677Z,0
2022-11-27T04:40:09.164Z,0
2022-11-27T04:40:49.604Z,0
2022-11-27T04:41:30.082Z,0
2022-11-27T04:48:15.181Z,0
2022-11-27T04:48:55.539Z,0
2022-11-27T04:50:16.629Z,0
2022-11-27T04:50:57.143Z,0
2022-11-27T04:51:37.646Z,0
2022-11-27T04:52:18.160Z,0
2022-11-27T04:52:58.680Z,0
2022-11-27T04:53:39.118Z,0
2022-11-27T04:54:19.598Z,0
2022-11-27T05:01:44.973Z,0
2022-11-27T05:02:25.551Z,0
2022-11-27T05:03:05.959Z,0
2022-11-27T05:04:27.025Z,0
2022-11-27T05:05:07.463Z,0
2022-11-27T05:05:47.913Z,0
2022-11-27T05:06:28.437Z,0
2022-11-27T05:07:08.909Z,0
2022-11-27T05:07:49.560Z,0
2022-11-27T05:08:29.933Z,0
2022-11-27T05:14:50.949Z,0
2022-11-27T05:15:31.419Z,0
2022-11-27T05:16:12.001Z,0
2022-11-27T05:16:52.389Z,0
2022-11-27T05:17:32.855Z,0
2022-11-27T05:18:13.374Z,0
2022-11-27T05:18:53.900Z,0
2022-11-27T05:19:34.500Z,0
2022-11-27T05:20:14.873Z,0
2022-11-27T05:20:55.401Z,0
2022-11-27T05:21:35.899Z,0
2022-11-27T05:27:41.057Z,0
2022-11-27T05:28:26.345Z,0
2022-11-27T05:29:01.996Z,0
2022-11-27T05:29:42.493Z,0
2022-11-27T05:30:23.010Z,0
2022-11-27T05:31:03.585Z,0
2022-11-27T05:31:44.054Z,0
2022-11-27T05:32:24.509Z,0
2022-11-27T05:33:05.010Z,0
2022-11-27T05:33:45.499Z,0
2022-11-27T05:34:25.999Z,0
2022-11-27T05:41:10.947Z,0
2022-11-27T05:41:51.474Z,0
2022-11-27T05:42:31.892Z,0
2022-11-27T05:43:12.388Z,0
2022-11-27T05:43:52.882Z,0
2022-11-27T05:44:33.401Z,0
2022-11-27T05:45:13.943Z,0
2022-11-27T05:45:54.378Z,0
2022-11-27T05:46:34.917Z,0
2022-11-27T05:47:15.378Z,0
2022-11-27T05:47:55.860Z,0
2022-11-27T06:32:19.508Z,0
2022-11-27T06:32:54.253Z,0
2022-11-27T06:33:34.576Z,0
2022-11-27T06:34:15.087Z,0
2022-11-27T06:34:55.586Z,0
2022-11-27T06:35:36.085Z,0
2022-11-27T06:36:16.557Z,0
2022-11-27T06:36:57.052Z,0
2022-11-27T06:37:37.541Z,0
2022-11-27T06:38:18.040Z,0
2022-11-27T06:38:58.536Z,0
2022-11-27T06:45:43.403Z,0
2022-11-27T06:46:23.842Z,4
2022-11-27T06:47:04.350Z,4
2022-11-27T06:47:44.869Z,4
2022-11-27T06:48:25.516Z,4
2022-11-27T06:49:05.851Z,4
2022-11-27T06:49:46.353Z,4
2022-11-27T06:50:26.895Z,4
2022-11-27T06:51:07.370Z,4
2022-11-27T06:51:47.944Z,8
2022-11-27T06:52:28.520Z,8
2022-11-27T06:59:13.525Z,16
2022-11-27T06:59:54.024Z,16
2022-11-27T07:00:34.548Z,20
2022-11-27T07:01:15.081Z,16
2022-11-27T07:01:55.599Z,20
2022-11-27T07:02:36.099Z,24
2022-11-27T07:03:16.511Z,24
2022-11-27T07:03:57.131Z,24
2022-11-27T07:04:37.509Z,24
2022-11-27T07:05:17.975Z,24
2022-11-27T07:05:58.511Z,24
2022-11-27T07:12:43.460Z,36
2022-11-27T07:13:23.962Z,36
2022-11-27T07:14:04.498Z,40
2022-11-27T07:14:45.042Z,40
2022-11-27T07:15:25.478Z,40
2022-11-27T07:16:06.063Z,40
2022-11-27T07:16:46.574Z,44
2022-11-27T07:17:27.055Z,44
2022-11-27T07:18:07.548Z,48
2022-11-27T07:18:48.901Z,48
2022-11-27T07:24:53.417Z,56
2022-11-27T07:25:33.893Z,60
2022-11-27T07:26:14.423Z,56
2022-11-27T07:26:54.871Z,60
2022-11-27T07:27:35.358Z,60
2022-11-27T07:28:18.778Z,60
2022-11-27T07:28:56.374Z,60
2022-11-27T07:29:36.869Z,60
2022-11-27T07:30:17.353Z,60
2022-11-27T07:30:57.833Z,56
2022-11-27T07:31:38.431Z,60
2022-11-27T07:38:23.366Z,60
2022-11-27T07:39:03.837Z,60
2022-11-27T07:40:01.763Z,60
2022-11-27T07:40:24.879Z,64
2022-11-27T07:41:05.347Z,64
2022-11-27T07:41:45.807Z,68
2022-11-27T07:42:41.659Z,68
2022-11-27T07:43:06.826Z,72
2022-11-27T07:43:47.316Z,76
2022-11-27T07:44:27.803Z,76
2022-11-27T07:45:08.278Z,80
2022-11-27T07:51:53.370Z,100
2022-11-27T07:52:38.129Z,104
2022-11-27T07:53:14.358Z,108
2022-11-27T07:53:54.864Z,108
2022-11-27T07:54:35.349Z,112
2022-11-27T07:55:15.842Z,116
2022-11-27T07:55:56.336Z,120
2022-11-27T07:56:36.841Z,128
2022-11-27T07:57:17.351Z,128
2022-11-27T07:57:57.821Z,136
2022-11-27T07:58:38.359Z,136
2022-11-27T08:06:03.909Z,168
2022-11-27T08:06:44.321Z,168
2022-11-27T08:07:24.829Z,172
2022-11-27T08:08:05.328Z,172
2022-11-27T08:08:45.786Z,176
2022-11-27T08:09:26.292Z,176
2022-11-27T08:10:06.766Z,180
2022-11-27T08:10:47.313Z,184
2022-11-27T08:11:27.779Z,188
2022-11-27T08:12:08.254Z,196
2022-11-27T08:18:13.696Z,260
2022-11-27T08:18:54.138Z,264
2022-11-27T08:19:34.629Z,268
2022-11-27T08:20:15.113Z,280
2022-11-27T08:20:55.610Z,288
2022-11-27T08:21:36.217Z,296
2022-11-27T08:22:16.611Z,312
2022-11-27T08:23:02.459Z,324
2022-11-27T08:23:37.678Z,336
2022-11-27T08:24:18.194Z,344
2022-11-27T08:24:58.681Z,360
2022-11-27T08:30:38.387Z,444
2022-11-27T08:31:24.634Z,460
2022-11-27T08:32:04.932Z,468
2022-11-27T08:32:45.398Z,480
2022-11-27T08:33:25.882Z,492
2022-11-27T08:34:06.454Z,500
2022-11-27T08:34:46.897Z,512
2022-11-27T08:35:27.412Z,516
2022-11-27T08:36:09.802Z,528
2022-11-27T08:36:48.994Z,532
2022-11-27T08:37:29.472Z,536
2022-11-27T08:38:09.945Z,536
2022-11-27T08:40:16.456Z,548
2022-11-27T08:40:56.991Z,548
2022-11-27T08:41:37.909Z,560
2022-11-27T08:42:19.137Z,560
2022-11-27T08:42:59.610Z,564
2022-11-27T08:43:40.182Z,560
2022-11-27T08:50:25.032Z,460
2022-11-27T08:51:05.490Z,452
2022-11-27T08:51:46.114Z,440
2022-11-27T08:52:26.715Z,432
2022-11-27T08:54:36.247Z,404
2022-11-27T08:55:16.649Z,396
2022-11-27T08:55:57.084Z,384
2022-11-27T08:56:37.564Z,380
2022-11-27T08:57:18.107Z,372
2022-11-27T08:57:58.633Z,368
2022-11-27T08:58:39.071Z,360
2022-11-27T09:00:00.089Z,360
2022-11-27T09:00:40.581Z,356
2022-11-27T09:05:25.697Z,384
2022-11-27T09:06:06.234Z,392
2022-11-27T09:06:46.791Z,396
2022-11-27T09:07:27.379Z,404
2022-11-27T09:08:07.988Z,408
2022-11-27T09:08:48.413Z,416
2022-11-27T09:09:30.404Z,424
2022-11-27T09:16:56.036Z,504
2022-11-27T09:17:36.358Z,516
2022-11-27T09:18:16.820Z,524
2022-11-27T09:18:57.370Z,532
2022-11-27T09:19:37.806Z,544
2022-11-27T09:20:18.344Z,560
2022-11-27T09:20:58.817Z,572
2022-11-27T09:21:39.298Z,584
2022-11-27T09:22:19.819Z,600
2022-11-27T09:23:00.257Z,612
2022-11-27T09:23:40.869Z,628
2022-11-27T09:30:25.843Z,804
2022-11-27T09:31:06.347Z,824
2022-11-27T09:31:46.864Z,840
2022-11-27T09:32:27.349Z,856
2022-11-27T09:33:07.822Z,872
2022-11-27T09:33:48.386Z,880
2022-11-27T09:34:30.475Z,880
2022-11-27T09:35:09.409Z,896
2022-11-27T09:35:49.830Z,900
2022-11-27T09:36:30.364Z,900
2022-11-27T09:42:36.726Z,916
2022-11-27T09:43:17.214Z,928
2022-11-27T09:43:57.731Z,932
2022-11-27T09:44:38.334Z,936
2022-11-27T09:45:18.759Z,940
2022-11-27T09:45:59.350Z,944
2022-11-27T09:46:39.821Z,936
2022-11-27T09:47:20.316Z,932
2022-11-27T09:48:00.789Z,924
2022-11-27T09:52:45.838Z,896
2022-11-27T09:53:26.377Z,884
2022-11-27T09:54:06.924Z,876
2022-11-27T09:54:52.062Z,872
2022-11-27T09:55:27.997Z,856
2022-11-27T09:56:08.422Z,844
2022-11-27T09:56:48.894Z,840
2022-11-27T09:57:29.412Z,828
2022-11-27T09:58:09.934Z,824
2022-11-27T09:58:50.414Z,812
2022-11-27T10:05:35.706Z,716
2022-11-27T10:06:16.163Z,708
2022-11-27T10:06:56.675Z,688
2022-11-27T10:07:37.205Z,672
2022-11-27T10:08:17.660Z,660
2022-11-27T10:08:58.165Z,640
2022-11-27T10:09:38.737Z,624
2022-11-27T10:10:19.478Z,608
2022-11-27T10:10:59.801Z,592
2022-11-27T10:11:40.271Z,580
2022-11-27T10:12:20.771Z,568
2022-11-27T10:15:55.566Z,512
2022-11-27T10:16:39.056Z,504
2022-11-27T10:17:16.690Z,496
2022-11-27T10:17:57.187Z,488
2022-11-27T10:18:37.740Z,488
2022-11-27T10:19:18.235Z,484
2022-11-27T10:19:58.721Z,480
2022-11-27T10:20:39.242Z,480
2022-11-27T10:25:22.817Z,480
2022-11-27T10:27:24.198Z,484
2022-11-27T10:28:04.691Z,492
2022-11-27T10:28:45.220Z,500
2022-11-27T10:29:25.665Z,504
2022-11-27T10:30:06.173Z,512
2022-11-27T10:30:46.670Z,520
2022-11-27T10:31:27.252Z,520
2022-11-27T10:32:07.699Z,524
2022-11-27T10:32:56.152Z,524
2022-11-27T10:33:28.643Z,528
2022-11-27T10:34:09.279Z,528
2022-11-27T10:40:54.209Z,544
2022-11-27T10:41:48.609Z,552
2022-11-27T10:42:15.185Z,552
2022-11-27T10:42:55.754Z,556
2022-11-27T10:43:36.270Z,572
2022-11-27T10:44:16.710Z,580
2022-11-27T10:44:57.204Z,584
2022-11-27T10:45:37.784Z,588
2022-11-27T10:46:18.287Z,588
2022-11-27T10:46:58.726Z,596
2022-11-27T10:47:39.250Z,596
2022-11-27T10:54:24.409Z,652
2022-11-27T10:55:04.909Z,652
2022-11-27T10:55:45.439Z,656
2022-11-27T10:56:26.081Z,648
2022-11-27T10:57:06.440Z,652
2022-11-27T10:57:47.009Z,656
2022-11-27T10:58:27.536Z,652
2022-11-27T10:59:08.019Z,652
2022-11-27T10:59:48.574Z,652
2022-11-27T11:00:29.026Z,644
2022-11-27T11:01:09.631Z,632
2022-11-27T11:07:14.364Z,540
2022-11-27T11:07:54.904Z,536
2022-11-27T11:08:35.418Z,532
2022-11-27T11:09:15.984Z,524
2022-11-27T11:09:56.449Z,520
2022-11-27T11:10:36.959Z,508
2022-11-27T11:11:17.498Z,496
2022-11-27T11:11:58.170Z,484
2022-11-27T11:12:39.095Z,476
2022-11-27T11:22:16.408Z,496
2022-11-27T11:22:57.144Z,500
2022-11-27T11:23:37.620Z,512
2022-11-27T11:24:18.167Z,516
2022-11-27T11:30:22.614Z,500
2022-11-27T11:31:03.140Z,500
2022-11-27T11:31:43.748Z,496
2022-11-27T11:32:24.094Z,492
2022-11-27T11:33:04.600Z,492
2022-11-27T11:33:45.124Z,488
2022-11-27T11:34:25.640Z,484
2022-11-27T11:35:06.136Z,480
2022-11-27T11:35:46.616Z,480
2022-11-27T11:36:27.170Z,480
2022-11-27T11:42:32.775Z,484
2022-11-27T11:43:13.150Z,488
2022-11-27T11:43:53.661Z,488
2022-11-27T11:44:34.153Z,492
2022-11-27T11:45:14.667Z,492
2022-11-27T11:45:55.167Z,488
2022-11-27T11:46:35.690Z,488
2022-11-27T11:47:16.183Z,488
2022-11-27T11:47:56.715Z,488
2022-11-27T11:48:37.284Z,484
2022-11-27T11:54:43.537Z,544
2022-11-27T12:38:04.878Z,484
2022-11-27T12:38:52.855Z,484
2022-11-27T12:39:35.108Z,488
2022-11-27T12:40:15.407Z,492
2022-11-27T12:40:55.887Z,488
2022-11-27T12:41:36.386Z,488
2022-11-27T12:45:41.822Z,476
2022-11-27T12:46:22.356Z,464
2022-11-27T12:47:02.820Z,452
2022-11-27T12:47:43.302Z,440
2022-11-27T12:48:23.869Z,428
2022-11-27T12:49:04.298Z,420
2022-11-27T12:52:22.330Z,396
2022-11-27T12:53:05.133Z,392
2022-11-27T12:53:45.715Z,388
2022-11-27T12:54:26.080Z,384
2022-11-27T13:00:30.675Z,412
2022-11-27T13:01:11.211Z,408
2022-11-27T13:01:51.728Z,408
2022-11-27T13:02:32.228Z,416
2022-11-27T13:03:12.737Z,424
2022-11-27T13:03:53.318Z,428
2022-11-27T13:04:33.814Z,436
2022-11-27T13:08:52.372Z,448
2022-11-27T13:09:29.589Z,444
2022-11-27T13:10:10.163Z,444
2022-11-27T13:10:51.302Z,452
2022-11-27T13:11:31.829Z,460
2022-11-27T13:12:12.333Z,460
2022-11-27T13:12:52.948Z,468
2022-11-27T13:13:33.375Z,468
2022-11-27T13:14:13.935Z,468
2022-11-27T13:20:19.329Z,400
2022-11-27T13:20:59.904Z,396
2022-11-27T13:23:17.721Z,396
2022-11-27T13:31:01.615Z,408
2022-11-27T13:31:42.501Z,404
2022-11-27T13:32:24.983Z,404
2022-11-27T13:33:06.827Z,404
2022-11-27T13:33:49.577Z,404
2022-11-27T13:34:30.877Z,400
2022-11-27T13:35:11.857Z,396
2022-11-27T13:38:37.276Z,356
2022-11-27T13:39:18.365Z,340
2022-11-27T13:39:59.898Z,328
2022-11-27T13:40:40.969Z,320
2022-11-27T13:41:22.074Z,312
2022-11-27T13:44:47.878Z,304
2022-11-27T13:45:29.030Z,296
2022-11-27T13:46:10.276Z,292
2022-11-27T13:47:32.337Z,284
2022-11-27T13:50:16.778Z,260
2022-11-27T13:50:57.816Z,248
2022-11-27T13:51:38.698Z,248
2022-11-27T13:52:20.605Z,244
2022-11-27T13:53:01.732Z,240
2022-11-27T13:54:28.995Z,236
2022-11-27T13:55:06.860Z,236
2022-11-27T13:55:47.981Z,228
2022-11-27T13:56:29.128Z,224
2022-11-27T13:57:10.156Z,220
2022-11-27T13:57:51.333Z,220
2022-11-27T13:58:32.335Z,216
2022-11-27T14:01:17.794Z,196
2022-11-27T14:01:58.670Z,192
2022-11-27T14:02:43.221Z,188
2022-11-27T14:05:28.607Z,176
2022-11-27T14:06:09.837Z,180
2022-11-27T14:06:51.141Z,180
2022-11-27T14:07:32.431Z,176
2022-11-27T14:10:17.013Z,168
2022-11-27T14:10:58.772Z,168
2022-11-27T14:11:39.681Z,168
2022-11-27T14:12:20.861Z,168
2022-11-27T14:13:01.851Z,168
2022-11-27T14:14:26.767Z,164
2022-11-27T14:15:07.743Z,164
2022-11-27T14:15:49.033Z,160
2022-11-27T14:16:30.234Z,156
2022-11-27T14:17:10.993Z,152
2022-11-27T14:17:51.899Z,156
2022-11-27T14:21:17.122Z,152
2022-11-27T14:21:58.151Z,152
2022-11-27T14:22:54.207Z,152
2022-11-27T14:23:20.334Z,148
2022-11-27T14:24:01.469Z,144
2022-11-27T14:24:42.994Z,144
2022-11-27T14:27:26.975Z,124
2022-11-27T14:28:08.472Z,120
2022-11-27T14:28:49.479Z,112
2022-11-27T14:29:33.074Z,112
2022-11-27T14:31:36.791Z,92
2022-11-27T14:32:17.495Z,88
2022-11-27T14:32:58.713Z,84
2022-11-27T14:34:00.015Z,80
2022-11-27T14:36:08.648Z,68
2022-11-27T14:36:49.112Z,68
2022-11-27T14:37:29.625Z,64
2022-11-27T14:38:10.184Z,68
2022-11-27T14:38:50.630Z,64
2022-11-27T14:39:31.162Z,68
2022-11-27T14:40:11.703Z,64
2022-11-27T14:40:52.229Z,68
2022-11-27T14:41:32.724Z,64
2022-11-27T14:42:13.275Z,64
2022-11-27T14:42:53.705Z,68
2022-11-27T14:49:38.940Z,52
2022-11-27T14:50:19.236Z,52
2022-11-27T14:50:59.707Z,48
2022-11-27T14:51:40.242Z,48
2022-11-27T14:52:20.793Z,48
2022-11-27T14:53:01.265Z,44
2022-11-27T14:53:41.766Z,48
2022-11-27T14:54:22.332Z,44
2022-11-27T14:55:02.795Z,44
2022-11-27T14:55:43.313Z,44
2022-11-27T15:02:29.414Z,32
2022-11-27T15:03:08.959Z,32
2022-11-27T15:03:49.357Z,32
2022-11-27T15:04:29.788Z,32
2022-11-27T15:05:10.290Z,28
2022-11-27T15:05:50.829Z,32
2022-11-27T15:06:31.332Z,28
2022-11-27T15:07:11.894Z,32
2022-11-27T15:07:52.361Z,28
2022-11-27T15:08:32.846Z,28
2022-11-27T15:09:31.105Z,24
2022-11-27T15:16:38.809Z,20
2022-11-27T15:17:19.240Z,16
2022-11-27T15:17:59.877Z,16
2022-11-27T15:18:40.286Z,16
2022-11-27T15:19:20.808Z,12
2022-11-27T15:20:01.328Z,16
2022-11-27T15:20:41.870Z,12
2022-11-27T15:21:22.378Z,12
2022-11-27T15:22:02.860Z,12
2022-11-27T15:22:43.418Z,12
2022-11-27T15:29:28.355Z,8
2022-11-27T15:30:08.899Z,4
2022-11-27T15:30:49.397Z,4
2022-11-27T15:31:29.905Z,4
2022-11-27T15:32:10.337Z,8
2022-11-27T15:32:50.908Z,8
2022-11-27T15:33:31.466Z,8
2022-11-27T15:34:11.852Z,8
2022-11-27T15:34:52.365Z,8
2022-11-27T15:35:32.932Z,4
2022-11-27T15:36:13.372Z,4
2022-11-27T15:42:58.437Z,4
2022-11-27T15:43:38.936Z,4
2022-11-27T15:44:19.460Z,4
2022-11-27T15:45:00.040Z,0
2022-11-27T15:45:40.642Z,0
2022-11-27T15:46:21.182Z,0
2022-11-27T15:47:01.573Z,0
2022-11-27T15:47:42.088Z,0
2022-11-27T15:48:22.618Z,0
2022-11-27T15:49:43.597Z,0
2022-11-27T15:56:28.620Z,0
2022-11-27T15:57:09.145Z,0
2022-11-27T15:57:49.633Z,0
2022-11-27T15:58:30.144Z,0
2022-11-27T15:59:10.620Z,0
2022-11-27T15:59:51.155Z,0
2022-11-27T16:00:31.683Z,0
2022-11-27T16:01:12.225Z,0
2022-11-27T16:01:52.679Z,0
2022-11-27T16:02:33.209Z,0
2022-11-27T16:03:13.651Z,0
2022-11-27T16:09:58.783Z,0
2022-11-27T16:10:39.240Z,0
2022-11-27T16:11:19.766Z,0
2022-11-27T16:12:00.277Z,0
2022-11-27T16:12:40.763Z,0
2022-11-27T16:13:21.303Z,0
2022-11-27T16:14:01.803Z,0
2022-11-27T16:14:42.680Z,0
2022-11-27T16:15:23.601Z,0
2022-11-27T16:16:03.279Z,0
2022-11-27T16:23:28.666Z,0
2022-11-27T16:24:09.221Z,0
2022-11-27T16:24:49.726Z,0
2022-11-27T16:25:30.199Z,0
2022-11-27T16:26:10.700Z,0
2022-11-27T16:26:51.255Z,0
2022-11-27T16:27:31.737Z,0
2022-11-27T16:28:12.247Z,0
2022-11-27T16:28:52.726Z,0
2022-11-27T16:29:33.241Z,0
2022-11-27T16:36:58.736Z,0
2022-11-27T16:37:39.208Z,0
2022-11-27T16:38:19.691Z,0
2022-11-27T16:39:00.167Z,0
2022-11-27T16:39:40.686Z,0
2022-11-27T16:40:21.205Z,0
2022-11-27T16:41:01.713Z,0
2022-11-27T16:41:42.195Z,0
2022-11-27T16:42:22.726Z,0
2022-11-27T16:43:03.195Z,0
2022-11-27T16:43:43.727Z,0
2022-11-27T16:50:28.871Z,0
2022-11-27T16:53:42.667Z,0
2022-11-27T16:54:23.038Z,0
2022-11-27T16:55:03.594Z,0
2022-11-27T16:55:44.130Z,0
2022-11-27T16:56:24.639Z,0
2022-11-27T16:57:05.165Z,0
2022-11-27T16:57:45.642Z,0
2022-11-27T16:58:26.113Z,0
2022-11-27T16:59:06.592Z,0
2022-11-27T16:59:47.115Z,0
2022-11-27T17:07:12.692Z,0
2022-11-27T17:07:53.193Z,0
2022-11-27T17:08:33.646Z,0
2022-11-27T17:09:14.265Z,0
2022-11-27T17:09:54.648Z,0
2022-11-27T17:10:35.147Z,0
2022-11-27T17:14:31.099Z,0
2022-11-27T17:15:12.082Z,0
2022-11-27T17:15:52.619Z,0
2022-11-27T17:16:34.142Z,0
2022-11-27T17:19:29.106Z,0
2022-11-27T17:20:09.886Z,0
2022-11-27T17:20:50.429Z,0
2022-11-27T17:21:31.095Z,0
2022-11-27T17:22:11.487Z,0
2022-11-27T17:22:52.010Z,0
2022-11-27T17:23:32.548Z,0
2022-11-27T17:24:15.194Z,0
2022-11-27T17:24:53.674Z,0
2022-11-27T17:32:19.137Z,0
2022-11-27T17:32:59.634Z,0
2022-11-27T17:33:40.116Z,0
2022-11-27T17:34:20.690Z,0
2022-11-27T17:35:01.115Z,0
2022-11-27T17:35:41.992Z,0
2022-11-27T17:36:22.268Z,0
2022-11-27T17:37:02.813Z,0
2022-11-27T17:37:43.318Z,0
2022-11-27T17:38:23.821Z,0
2022-11-27T17:45:08.918Z,0
2022-11-27T17:45:49.410Z,0
2022-11-27T17:46:29.880Z,0
2022-11-27T17:47:10.407Z,0
2022-11-27T17:47:50.904Z,0
2022-11-27T17:48:31.370Z,0
2022-11-27T17:49:11.902Z,0
2022-11-27T17:50:32.851Z,0
2022-11-27T17:51:13.368Z,0
2022-11-27T17:51:53.840Z,0
2022-11-27T18:34:22.927Z,0
2022-11-27T18:35:03.343Z,0
2022-11-27T18:35:43.826Z,0
2022-11-27T18:36:24.359Z,0
2022-11-27T18:37:05.603Z,0
2022-11-27T18:37:46.173Z,0
2022-11-27T18:38:26.595Z,0
2022-11-27T18:39:07.076Z,0
2022-11-27T18:39:47.583Z,0
2022-11-27T18:47:13.037Z,0
2022-11-27T18:47:53.543Z,0
2022-11-27T18:48:34.123Z,0
2022-11-27T18:49:14.595Z,0
2022-11-27T18:49:55.216Z,0
2022-11-27T18:50:35.589Z,0
2022-11-27T18:51:16.087Z,0
2022-11-27T18:51:56.561Z,0
2022-11-27T18:52:37.055Z,0
2022-11-27T18:53:17.533Z,0
2022-11-27T19:00:02.669Z,0
2022-11-27T19:00:43.232Z,0
2022-11-27T19:01:23.767Z,0
2022-11-27T19:02:04.367Z,0
2022-11-27T19:02:44.778Z,0
2022-11-27T19:03:25.165Z,0
2022-11-27T19:04:05.693Z,0
2022-11-27T19:04:46.179Z,0
2022-11-27T19:05:26.786Z,0
2022-11-27T19:06:07.166Z,0
2022-11-27T19:09:20.777Z,0
2022-11-27T19:10:01.291Z,0
2022-11-27T19:10:41.765Z,0
2022-11-27T19:11:22.264Z,0
2022-11-27T19:12:02.793Z,0
2022-11-27T19:12:43.302Z,0
2022-11-27T19:13:23.747Z,0
2022-11-27T19:14:04.215Z,0
2022-11-27T19:14:44.903Z,0
2022-11-27T19:15:25.236Z,0
2022-11-27T19:16:05.799Z,0
2022-11-27T19:22:50.664Z,0
2022-11-27T19:23:34.003Z,0
2022-11-27T19:24:11.639Z,0
2022-11-27T19:24:52.147Z,0
2022-11-27T19:25:32.629Z,0
2022-11-27T19:26:13.115Z,0
2022-11-27T19:26:53.598Z,0
2022-11-27T19:27:34.121Z,0
2022-11-27T19:28:14.599Z,0
2022-11-27T19:28:55.192Z,0
2022-11-27T19:35:40.966Z,0
2022-11-27T19:36:21.590Z,0
2022-11-27T19:37:01.980Z,0
2022-11-27T19:37:42.465Z,0
2022-11-27T19:38:22.960Z,0
2022-11-27T19:39:03.487Z,0
2022-11-27T19:39:44.013Z,0
2022-11-27T19:40:24.541Z,0
2022-11-27T19:41:05.022Z,0
2022-11-27T19:41:45.509Z,0
2022-11-27T19:48:30.536Z,0
2022-11-27T19:49:11.041Z,0
2022-11-27T19:49:51.509Z,0
2022-11-27T19:50:32.040Z,0
2022-11-27T19:51:12.549Z,0
2022-11-27T19:51:53.184Z,0
2022-11-27T19:52:33.618Z,0
2022-11-27T19:53:14.082Z,0
2022-11-27T19:53:54.579Z,0
2022-11-27T19:54:35.095Z,0
2022-11-27T20:02:00.582Z,0
2022-11-27T20:02:41.158Z,0
2022-11-27T20:03:21.507Z,0
2022-11-27T20:04:02.015Z,0
2022-11-27T20:04:42.667Z,0
2022-11-27T20:05:22.966Z,0
2022-11-27T20:06:03.503Z,0
2022-11-27T20:06:44.014Z,0
2022-11-27T20:07:24.655Z,0
2022-11-27T20:08:05.071Z,0
2022-11-27T20:08:45.512Z,0
2022-11-27T20:14:10.541Z,0
2022-11-27T20:14:51.022Z,0
2022-11-27T20:15:31.468Z,0
2022-11-27T20:16:12.004Z,0
2022-11-27T20:16:52.512Z,0
2022-11-27T20:17:32.956Z,0
2022-11-27T20:18:13.430Z,0
2022-11-27T20:18:53.947Z,0
2022-11-27T20:19:34.403Z,0
2022-11-27T20:20:55.457Z,0
2022-11-27T20:28:20.945Z,0
2022-11-27T20:29:01.472Z,0
2022-11-27T20:29:42.337Z,0